createdAt,value
2018-02-17T00:00:26.397Z,1.62
2018-02-17T00:01:36.273Z,1.57
2018-02-17T00:02:46.654Z,1.54
2018-02-17T00:03:56.860Z,1.57
2018-02-17T00:05:06.816Z,1.62
2018-02-17T00:06:16.718Z,1.64
2018-02-17T00:07:26.589Z,1.54
2018-02-17T00:08:36.507Z,1.58
2018-02-17T00:09:46.724Z,1.57
2018-02-17T00:10:56.862Z,1.55
2018-02-17T00:12:06.637Z,1.55
2018-02-17T00:13:16.176Z,1.54
2018-02-17T00:14:26.140Z,1.57
2018-02-17T00:15:36.025Z,1.53
2018-02-17T00:16:46.146Z,1.53
2018-02-17T00:17:56.262Z,1.54
2018-02-17T00:19:06.147Z,1.57
2018-02-17T00:20:16.303Z,1.54
2018-02-17T00:21:26.181Z,1.53
2018-02-17T00:22:36.493Z,1.43
2018-02-17T00:23:46.783Z,1.46
2018-02-17T00:24:56.985Z,1.48
2018-02-17T00:26:07.140Z,1.48
2018-02-17T00:27:17.332Z,1.4
2018-02-17T00:28:27.272Z,1.47
2018-02-17T00:29:37.407Z,1.38
2018-02-17T00:30:47.404Z,1.43
2018-02-17T00:31:57.383Z,1.46
2018-02-17T00:33:07.550Z,1.43
2018-02-17T00:34:17.497Z,1.46
2018-02-17T00:35:27.613Z,1.42
2018-02-17T00:36:37.753Z,1.33
2018-02-17T00:37:48.009Z,1.3
2018-02-17T00:38:58.275Z,1.3
2018-02-17T00:40:08.420Z,1.28
2018-02-17T00:41:18.637Z,1.35
2018-02-17T00:42:28.765Z,1.32
2018-02-17T00:43:38.658Z,1.33
2018-02-17T00:44:48.863Z,1.22
2018-02-17T00:45:58.673Z,1.18
2018-02-17T00:47:08.934Z,1.35
2018-02-17T00:48:19.164Z,1.35
2018-02-17T00:49:28.772Z,1.35
2018-02-17T00:50:38.912Z,1.42
2018-02-17T00:51:48.899Z,1.3
2018-02-17T00:52:59.084Z,1.32
2018-02-17T00:54:09.980Z,1.29
2018-02-17T00:55:20.109Z,1.33
2018-02-17T00:56:30.243Z,1.3
2018-02-17T00:57:40.157Z,1.3
2018-02-17T00:58:50.282Z,1.32
2018-02-17T01:00:00.431Z,1.21
2018-02-17T01:01:10.587Z,1.18
2018-02-17T01:02:20.745Z,1.21
2018-02-17T01:03:30.891Z,1.21
2018-02-17T01:04:41.987Z,1.2
2018-02-17T01:05:51.864Z,1.18
2018-02-17T01:07:02.004Z,1.12
2018-02-17T01:08:12.130Z,1.18
2018-02-17T01:09:22.258Z,1.25
2018-02-17T01:10:32.422Z,1.3
2018-02-17T01:11:42.542Z,1.32
2018-02-17T01:12:52.451Z,1.33
2018-02-17T01:14:02.215Z,1.3
2018-02-17T01:15:11.865Z,1.33
2018-02-17T01:16:22.000Z,1.36
2018-02-17T01:17:32.117Z,1.5
2018-02-17T01:18:42.241Z,1.48
2018-02-17T01:19:52.406Z,1.38
2018-02-17T01:21:02.085Z,1.47
2018-02-17T01:22:12.008Z,1.38
2018-02-17T01:23:22.131Z,1.39
2018-02-17T01:24:31.883Z,1.42
2018-02-17T01:25:42.008Z,1.39
2018-02-17T01:26:52.124Z,1.33
2018-02-17T01:28:01.746Z,1.32
2018-02-17T01:29:11.605Z,1.38
2018-02-17T01:30:21.730Z,1.35
2018-02-17T01:31:31.349Z,1.33
2018-02-17T01:32:41.625Z,1.32
2018-02-17T01:33:51.747Z,1.3
2018-02-17T01:35:01.571Z,1.32
2018-02-17T01:36:11.806Z,1.32
2018-02-17T01:37:21.977Z,1.4
2018-02-17T01:38:32.124Z,1.32
2018-02-17T01:39:42.277Z,1.29
2018-02-17T01:40:52.050Z,1.33
2018-02-17T01:42:02.189Z,1.22
2018-02-17T01:43:12.307Z,1.25
2018-02-17T01:44:22.165Z,1.28
2018-02-17T01:45:32.032Z,1.24
2018-02-17T01:46:42.368Z,1.21
2018-02-17T01:47:52.269Z,1.25
2018-02-17T01:49:02.152Z,1.17
2018-02-17T01:50:12.275Z,1.11
2018-02-17T01:51:22.396Z,1.14
2018-02-17T01:52:32.544Z,1.14
2018-02-17T01:53:42.723Z,1.04
2018-02-17T01:54:52.687Z,1.17
2018-02-17T01:56:02.587Z,1.2
2018-02-17T01:57:12.767Z,1.29
2018-02-17T01:58:22.745Z,1.17
2018-02-17T01:59:32.918Z,1.17
2018-02-17T02:00:42.684Z,1.21
2018-02-17T02:01:53.551Z,1.29
2018-02-17T02:03:03.664Z,1.21
2018-02-17T02:04:13.795Z,1.2
2018-02-17T02:05:24.029Z,1.14
2018-02-17T02:06:34.307Z,1.18
2018-02-17T02:07:44.431Z,1.2
2018-02-17T02:08:54.405Z,1.2
2018-02-17T02:10:04.522Z,1.22
2018-02-17T02:11:14.385Z,1.22
2018-02-17T02:12:24.140Z,1.25
2018-02-17T02:13:33.741Z,1.22
2018-02-17T02:14:43.496Z,1.24
2018-02-17T02:15:53.078Z,1.17
2018-02-17T02:17:03.206Z,1.18
2018-02-17T02:18:13.104Z,1.21
2018-02-17T02:19:23.251Z,1.15
2018-02-17T02:20:33.402Z,1.15
2018-02-17T02:21:43.650Z,1.06
2018-02-17T02:22:53.509Z,1.02
2018-02-17T02:24:03.264Z,0.99
2018-02-17T02:25:13.016Z,1
2018-02-17T02:26:23.248Z,1.02
2018-02-17T02:27:32.742Z,0.99
2018-02-17T02:28:42.911Z,1.04
2018-02-17T02:29:52.698Z,0.97
2018-02-17T02:31:02.685Z,0.93
2018-02-17T02:32:12.948Z,0.93
2018-02-17T02:33:22.703Z,0.9
2018-02-17T02:34:32.558Z,1
2018-02-17T02:35:42.335Z,1.04
2018-02-17T02:36:52.608Z,0.97
2018-02-17T02:38:02.549Z,1.02
2018-02-17T02:39:12.732Z,1.06
2018-02-17T02:40:22.607Z,1.03
2018-02-17T02:41:32.382Z,0.99
2018-02-17T02:42:42.522Z,1
2018-02-17T02:43:52.670Z,0.97
2018-02-17T02:45:02.806Z,1.03
2018-02-17T02:46:12.725Z,0.97
2018-02-17T02:47:22.607Z,0.93
2018-02-17T02:48:32.484Z,0.85
2018-02-17T02:49:42.451Z,0.84
2018-02-17T02:50:52.588Z,0.79
2018-02-17T02:52:02.718Z,0.68
2018-02-17T02:53:12.850Z,0.76
2018-02-17T02:54:22.758Z,0.71
2018-02-17T02:55:32.886Z,0.66
2018-02-17T02:56:43.012Z,0.68
2018-02-17T02:57:53.238Z,0.6
2018-02-17T02:59:02.739Z,0.58
2018-02-17T03:00:12.860Z,0.6
2018-02-17T03:01:22.717Z,0.58
2018-02-17T03:02:32.253Z,0.56
2018-02-17T03:03:42.407Z,0.61
2018-02-17T03:04:52.665Z,0.53
2018-02-17T03:06:02.944Z,0.58
2018-02-17T03:07:13.153Z,0.5
2018-02-17T03:08:23.304Z,0.48
2018-02-17T03:09:33.102Z,0.49
2018-02-17T03:10:43.289Z,0.46
2018-02-17T03:11:53.462Z,0.54
2018-02-17T03:13:03.607Z,0.39
2018-02-17T03:14:13.776Z,0.53
2018-02-17T03:15:23.937Z,0.39
2018-02-17T03:16:33.861Z,0.4
2018-02-17T03:17:44.083Z,0.46
2018-02-17T03:18:54.091Z,0.45
2018-02-17T03:20:04.819Z,0.48
2018-02-17T03:21:14.944Z,0.45
2018-02-17T03:22:24.931Z,0.56
2018-02-17T03:23:35.153Z,0.5
2018-02-17T03:24:44.659Z,0.48
2018-02-17T03:25:54.419Z,0.45
2018-02-17T03:27:04.531Z,0.56
2018-02-17T03:28:14.640Z,0.58
2018-02-17T03:29:24.696Z,0.6
2018-02-17T03:30:34.567Z,0.53
2018-02-17T03:31:44.728Z,0.6
2018-02-17T03:32:54.573Z,0.72
2018-02-17T03:34:04.428Z,0.61
2018-02-17T03:35:13.791Z,0.6
2018-02-17T03:36:23.906Z,0.6
2018-02-17T03:37:34.013Z,0.57
2018-02-17T03:38:44.179Z,0.53
2018-02-17T03:39:54.346Z,0.53
2018-02-17T03:41:04.502Z,0.48
2018-02-17T03:42:14.620Z,0.45
2018-02-17T03:43:24.755Z,0.48
2018-02-17T03:44:34.864Z,0.38
2018-02-17T03:45:44.318Z,0.43
2018-02-17T03:46:54.437Z,0.49
2018-02-17T03:48:04.551Z,0.39
2018-02-17T03:49:14.492Z,0.4
2018-02-17T03:50:24.652Z,0.3
2018-02-17T03:51:34.766Z,0.31
2018-02-17T03:52:44.532Z,0.38
2018-02-17T03:53:54.135Z,0.3
2018-02-17T03:55:04.404Z,0.3
2018-02-17T03:56:14.260Z,0.33
2018-02-17T03:57:24.124Z,0.31
2018-02-17T03:58:34.029Z,0.31
2018-02-17T03:59:44.370Z,0.31
2018-02-17T04:00:53.965Z,0.25
2018-02-17T04:02:03.466Z,0.24
2018-02-17T04:03:13.591Z,0.3
2018-02-17T04:04:23.732Z,0.27
2018-02-17T04:05:33.607Z,0.3
2018-02-17T04:06:43.778Z,0.31
2018-02-17T04:07:53.115Z,0.39
2018-02-17T04:09:03.226Z,0.48
2018-02-17T04:10:13.078Z,0.43
2018-02-17T04:11:23.235Z,0.46
2018-02-17T04:12:33.357Z,0.45
2018-02-17T04:13:43.488Z,0.42
2018-02-17T04:14:53.617Z,0.36
2018-02-17T04:16:03.741Z,0.42
2018-02-17T04:17:13.660Z,0.39
2018-02-17T04:18:23.918Z,0.35
2018-02-17T04:19:34.044Z,0.35
2018-02-17T04:20:44.360Z,0.33
2018-02-17T04:21:54.253Z,0.33
2018-02-17T04:23:04.378Z,0.28
2018-02-17T04:24:14.509Z,0.28
2018-02-17T04:25:24.670Z,0.28
2018-02-17T04:26:34.792Z,0.27
2018-02-17T04:27:44.908Z,0.24
2018-02-17T04:28:54.769Z,0.16
2018-02-17T04:30:04.732Z,0.11
2018-02-17T04:31:14.230Z,0.11
2018-02-17T04:32:24.341Z,0.01
2018-02-17T04:33:34.209Z,0.05
2018-02-17T04:34:44.134Z,-0.02
2018-02-17T04:35:53.766Z,0.03
2018-02-17T04:37:04.003Z,0.08
2018-02-17T04:38:13.878Z,-0.04
2018-02-17T04:39:24.074Z,-0.06
2018-02-17T04:40:33.939Z,-0.01
2018-02-17T04:41:43.949Z,-0.06
2018-02-17T04:42:53.841Z,-0.06
2018-02-17T04:44:04.002Z,-0.06
2018-02-17T04:45:13.935Z,-0.06
2018-02-17T04:46:23.604Z,0.01
2018-02-17T04:47:33.474Z,-0.15
2018-02-17T04:48:43.584Z,-0.1
2018-02-17T04:49:53.698Z,-0.15
2018-02-17T04:51:03.829Z,-0.13
2018-02-17T04:52:13.591Z,-0.15
2018-02-17T04:53:23.475Z,-0.13
2018-02-17T04:54:33.607Z,-0.12
2018-02-17T04:55:43.416Z,-0.12
2018-02-17T04:56:53.167Z,-0.15
2018-02-17T04:58:03.316Z,-0.17
2018-02-17T04:59:13.460Z,-0.07
2018-02-17T05:00:23.317Z,-0.12
2018-02-17T05:01:33.179Z,-0.06
2018-02-17T05:02:43.477Z,0.01
2018-02-17T05:03:53.236Z,-0.02
2018-02-17T05:05:03.391Z,-0.06
2018-02-17T05:06:13.720Z,0.02
2018-02-17T05:07:23.572Z,-0.04
2018-02-17T05:08:33.441Z,-0.02
2018-02-17T05:09:43.553Z,-0.04
2018-02-17T05:10:53.664Z,0.02
2018-02-17T05:12:03.535Z,0.01
2018-02-17T05:13:13.676Z,0.05
2018-02-17T05:14:23.814Z,0.02
2018-02-17T05:15:34.031Z,-0.01
2018-02-17T05:16:43.877Z,-0.01
2018-02-17T05:17:53.998Z,0.08
2018-02-17T05:19:04.182Z,-0.01
2018-02-17T05:20:13.688Z,0.06
2018-02-17T05:21:23.601Z,0.08
2018-02-17T05:22:33.844Z,0.06
2018-02-17T05:23:43.726Z,0.11
2018-02-17T05:24:53.994Z,0.09
2018-02-17T05:26:03.858Z,-0.01
2018-02-17T05:27:13.978Z,0.03
2018-02-17T05:28:24.088Z,0.02
2018-02-17T05:29:34.204Z,-0.01
2018-02-17T05:30:44.122Z,-0.02
2018-02-17T05:31:54.246Z,0.01
2018-02-17T05:33:04.674Z,0.02
2018-02-17T05:34:14.785Z,0.01
2018-02-17T05:35:24.981Z,-0.01
2018-02-17T05:36:34.524Z,-0.07
2018-02-17T05:37:44.658Z,0.05
2018-02-17T05:38:54.772Z,0.08
2018-02-17T05:40:04.708Z,0.06
2018-02-17T05:41:14.780Z,0.09
2018-02-17T05:42:24.880Z,0.09
2018-02-17T05:43:35.015Z,0.03
2018-02-17T05:44:45.195Z,0.05
2018-02-17T05:45:54.993Z,-0.01
2018-02-17T05:47:05.223Z,0.03
2018-02-17T05:48:15.357Z,-0.06
2018-02-17T05:49:25.229Z,0.05
2018-02-17T05:50:35.348Z,0.08
2018-02-17T05:51:45.266Z,0.08
2018-02-17T05:52:55.397Z,0.05
2018-02-17T05:54:05.279Z,0.03
2018-02-17T05:55:15.409Z,0.02
2018-02-17T05:56:25.003Z,-0.02
2018-02-17T05:57:35.198Z,-0.01
2018-02-17T05:58:44.801Z,-0.17
2018-02-17T05:59:54.414Z,-0.13
2018-02-17T06:01:04.535Z,-0.15
2018-02-17T06:02:14.644Z,-0.13
2018-02-17T06:03:24.569Z,-0.22
2018-02-17T06:04:34.216Z,-0.19
2018-02-17T06:05:44.339Z,-0.17
2018-02-17T06:06:54.480Z,-0.2
2018-02-17T06:08:04.606Z,-0.3
2018-02-17T06:09:14.294Z,-0.34
2018-02-17T06:10:24.428Z,-0.28
2018-02-17T06:11:34.144Z,-0.19
2018-02-17T06:12:44.292Z,-0.27
2018-02-17T06:13:54.434Z,-0.28
2018-02-17T06:15:04.344Z,-0.22
2018-02-17T06:16:14.074Z,-0.22
2018-02-17T06:17:23.712Z,-0.19
2018-02-17T06:18:33.859Z,-0.27
2018-02-17T06:19:43.822Z,-0.22
2018-02-17T06:20:53.977Z,-0.28
2018-02-17T06:22:03.841Z,-0.23
2018-02-17T06:23:13.993Z,-0.37
2018-02-17T06:24:23.683Z,-0.37
2018-02-17T06:25:33.802Z,-0.43
2018-02-17T06:26:43.702Z,-0.46
2018-02-17T06:27:53.828Z,-0.46
2018-02-17T06:29:03.821Z,-0.46
2018-02-17T06:30:14.046Z,-0.58
2018-02-17T06:31:24.251Z,-0.56
2018-02-17T06:32:34.401Z,-0.51
2018-02-17T06:33:43.772Z,-0.45
2018-02-17T06:34:53.623Z,-0.46
2018-02-17T06:36:03.491Z,-0.45
2018-02-17T06:37:13.120Z,-0.49
2018-02-17T06:38:22.971Z,-0.48
2018-02-17T06:39:33.092Z,-0.49
2018-02-17T06:40:44.209Z,-0.51
2018-02-17T06:41:54.346Z,-0.48
2018-02-17T06:43:04.214Z,-0.45
2018-02-17T06:44:14.087Z,-0.46
2018-02-17T06:45:24.206Z,-0.49
2018-02-17T06:46:34.341Z,-0.49
2018-02-17T06:47:43.953Z,-0.41
2018-02-17T06:48:54.262Z,-0.33
2018-02-17T06:50:03.975Z,-0.31
2018-02-17T06:51:13.872Z,-0.25
2018-02-17T06:52:23.731Z,-0.2
2018-02-17T06:53:33.864Z,-0.2
2018-02-17T06:54:44.052Z,-0.23
2018-02-17T06:55:54.060Z,-0.16
2018-02-17T06:57:04.210Z,-0.15
2018-02-17T06:58:14.425Z,-0.17
2018-02-17T06:59:24.551Z,-0.15
2018-02-17T07:00:34.684Z,-0.09
2018-02-17T07:01:44.559Z,0.01
2018-02-17T07:02:54.705Z,-0.02
2018-02-17T07:04:04.569Z,-0.02
2018-02-17T07:05:14.458Z,0.03
2018-02-17T07:06:24.120Z,-0.01
2018-02-17T07:07:33.980Z,0.09
2018-02-17T07:08:44.161Z,0.06
2018-02-17T07:09:54.005Z,0.11
2018-02-17T07:11:04.125Z,0.05
2018-02-17T07:12:13.985Z,0.09
2018-02-17T07:13:24.117Z,0.08
2018-02-17T07:14:34.307Z,0.09
2018-02-17T07:15:44.184Z,0.08
2018-02-17T07:16:54.326Z,0.16
2018-02-17T07:18:04.202Z,0.25
2018-02-17T07:19:14.312Z,0.36
2018-02-17T07:20:24.486Z,0.39
2018-02-17T07:21:34.770Z,0.49
2018-02-17T07:22:44.901Z,0.56
2018-02-17T07:23:55.064Z,0.67
2018-02-17T07:25:05.279Z,0.58
2018-02-17T07:26:15.527Z,0.64
2018-02-17T07:27:25.713Z,0.71
2018-02-17T07:28:35.934Z,0.78
2018-02-17T07:29:46.166Z,0.74
2018-02-17T07:30:56.411Z,0.74
2018-02-17T07:32:06.005Z,0.72
2018-02-17T07:33:16.156Z,0.82
2018-02-17T07:34:26.290Z,0.86
2018-02-17T07:35:36.429Z,0.85
2018-02-17T07:36:46.620Z,0.96
2018-02-17T07:37:56.810Z,1.06
2018-02-17T07:39:07.033Z,1.03
2018-02-17T07:40:16.630Z,1.17
2018-02-17T07:41:25.888Z,1.25
2018-02-17T07:42:35.707Z,1.2
2018-02-17T07:43:45.966Z,1.24
2018-02-17T07:44:56.184Z,1.2
2018-02-17T07:46:05.957Z,1.22
2018-02-17T07:47:15.854Z,1.33
2018-02-17T07:48:25.996Z,1.33
2018-02-17T07:49:35.851Z,1.53
2018-02-17T07:50:45.970Z,1.42
2018-02-17T07:51:56.097Z,1.53
2018-02-17T07:53:05.966Z,1.7
2018-02-17T07:54:16.108Z,1.77
2018-02-17T07:55:26.268Z,1.82
2018-02-17T07:56:36.216Z,1.94
2018-02-17T07:57:46.358Z,2.01
2018-02-17T07:58:56.327Z,2.03
2018-02-17T08:00:06.228Z,2.12
2018-02-17T08:01:16.085Z,2.18
2018-02-17T08:02:26.217Z,2.24
2018-02-17T08:03:36.111Z,2.24
2018-02-17T08:04:46.276Z,2.31
2018-02-17T08:05:56.246Z,2.33
2018-02-17T08:07:06.399Z,2.39
2018-02-17T08:08:16.452Z,2.36
2018-02-17T08:09:26.601Z,2.42
2018-02-17T08:10:36.662Z,2.3
2018-02-17T08:11:46.817Z,2.42
2018-02-17T08:12:56.952Z,2.41
2018-02-17T08:14:07.112Z,2.31
2018-02-17T08:15:17.223Z,2.42
2018-02-17T08:16:27.380Z,2.48
2018-02-17T08:17:37.036Z,2.55
2018-02-17T08:18:47.212Z,2.7
2018-02-17T08:19:57.095Z,2.78
2018-02-17T08:21:07.218Z,2.88
2018-02-17T08:22:17.229Z,2.91
2018-02-17T08:23:27.637Z,3
2018-02-17T08:24:37.465Z,2.91
2018-02-17T08:25:47.583Z,2.84
2018-02-17T08:26:57.248Z,2.92
2018-02-17T08:28:07.448Z,2.97
2018-02-17T08:29:17.568Z,3.07
2018-02-17T08:30:27.499Z,3.24
2018-02-17T08:31:37.739Z,3.25
2018-02-17T08:32:47.956Z,3.43
2018-02-17T08:33:58.076Z,3.39
2018-02-17T08:35:08.348Z,3.54
2018-02-17T08:36:18.548Z,3.67
2018-02-17T08:37:28.411Z,3.68
2018-02-17T08:38:38.636Z,3.69
2018-02-17T08:39:48.849Z,3.69
2018-02-17T08:40:59.106Z,3.76
2018-02-17T08:42:09.270Z,3.83
2018-02-17T08:43:19.427Z,3.86
2018-02-17T08:44:29.753Z,3.86
2018-02-17T08:45:39.973Z,3.8
2018-02-17T08:46:49.836Z,3.85
2018-02-17T08:47:59.702Z,3.86
2018-02-17T08:49:09.604Z,3.91
2018-02-17T08:50:19.484Z,3.97
2018-02-17T08:51:29.652Z,4.04
2018-02-17T08:52:39.429Z,4.09
2018-02-17T08:53:49.685Z,4.28
2018-02-17T08:54:59.339Z,4.34
2018-02-17T08:56:09.492Z,4.52
2018-02-17T08:57:19.628Z,4.59
2018-02-17T08:58:29.847Z,4.7
2018-02-17T08:59:39.691Z,4.68
2018-02-17T09:00:49.859Z,4.7
2018-02-17T09:02:00.029Z,4.63
2018-02-17T09:03:09.816Z,4.7
2018-02-17T09:04:19.811Z,4.74
2018-02-17T09:05:29.595Z,4.74
2018-02-17T09:06:39.472Z,4.71
2018-02-17T09:07:48.978Z,4.6
2018-02-17T09:08:59.129Z,4.53
2018-02-17T09:10:09.270Z,4.41
2018-02-17T09:11:19.231Z,4.4
2018-02-17T09:12:29.376Z,4.41
2018-02-17T09:13:39.538Z,4.5
2018-02-17T09:14:49.604Z,4.53
2018-02-17T09:15:59.866Z,4.53
2018-02-17T09:17:09.420Z,4.5
2018-02-17T09:18:19.428Z,4.53
2018-02-17T09:19:29.333Z,4.55
2018-02-17T09:20:38.846Z,4.53
2018-02-17T09:21:49.044Z,4.65
2018-02-17T09:22:58.936Z,4.68
2018-02-17T09:24:09.121Z,4.74
2018-02-17T09:25:19.272Z,4.75
2018-02-17T09:26:29.469Z,4.85
2018-02-17T09:27:39.091Z,4.71
2018-02-17T09:28:49.355Z,4.71
2018-02-17T09:29:59.536Z,4.78
2018-02-17T09:31:09.193Z,4.81
2018-02-17T09:32:19.131Z,4.93
2018-02-17T09:33:29.270Z,4.92
2018-02-17T09:34:39.253Z,4.98
2018-02-17T09:35:49.152Z,5.07
2018-02-17T09:36:59.140Z,5.08
2018-02-17T09:38:09.312Z,5.11
2018-02-17T09:39:19.135Z,5.08
2018-02-17T09:40:29.067Z,5.11
2018-02-17T09:41:39.246Z,5.04
2018-02-17T09:42:49.485Z,5.06
2018-02-17T09:43:59.642Z,5.07
2018-02-17T09:45:09.514Z,5.03
2018-02-17T09:46:19.735Z,5.03
2018-02-17T09:47:29.944Z,4.99
2018-02-17T09:48:40.131Z,5.17
2018-02-17T09:49:50.326Z,5.18
2018-02-17T09:51:00.507Z,5.41
2018-02-17T09:52:10.337Z,5.5
2018-02-17T09:53:20.559Z,5.56
2018-02-17T09:54:30.764Z,5.49
2018-02-17T09:55:40.900Z,5.54
2018-02-17T09:56:50.790Z,5.5
2018-02-17T09:58:00.699Z,5.53
2018-02-17T09:59:10.861Z,5.59
2018-02-17T10:00:21.033Z,5.41
2018-02-17T10:01:30.816Z,5.41
2018-02-17T10:02:40.713Z,5.29
2018-02-17T10:03:50.846Z,5.18
2018-02-17T10:05:00.549Z,5.31
2018-02-17T10:06:11.655Z,5.21
2018-02-17T10:07:21.799Z,5.25
2018-02-17T10:08:32.045Z,5.28
2018-02-17T10:09:41.932Z,5.17
2018-02-17T10:10:52.133Z,5.11
2018-02-17T10:12:02.263Z,5.06
2018-02-17T10:13:12.425Z,5.06
2018-02-17T10:14:22.794Z,4.99
2018-02-17T10:15:32.576Z,4.96
2018-02-17T10:16:42.557Z,4.98
2018-02-17T10:17:52.281Z,4.95
2018-02-17T10:19:02.514Z,4.77
2018-02-17T10:20:12.031Z,4.83
2018-02-17T10:21:21.926Z,4.83
2018-02-17T10:22:32.234Z,4.73
2018-02-17T10:23:42.424Z,4.81
2018-02-17T10:24:52.831Z,4.81
2018-02-17T10:26:03.015Z,4.92
2018-02-17T10:27:12.400Z,4.93
2018-02-17T10:28:22.544Z,4.93
2018-02-17T10:29:32.753Z,4.98
2018-02-17T10:30:42.913Z,5.03
2018-02-17T10:31:52.820Z,5.07
2018-02-17T10:33:02.814Z,5.08
2018-02-17T10:34:12.707Z,5.04
2018-02-17T10:35:22.893Z,5.11
2018-02-17T10:36:32.549Z,5.16
2018-02-17T10:37:42.750Z,5.11
2018-02-17T10:38:52.631Z,5.29
2018-02-17T10:40:02.535Z,5.31
2018-02-17T10:41:12.496Z,5.41
2018-02-17T10:42:22.660Z,5.46
2018-02-17T10:43:32.828Z,5.64
2018-02-17T10:44:42.736Z,5.71
2018-02-17T10:45:52.888Z,5.69
2018-02-17T10:47:02.778Z,5.75
2018-02-17T10:48:12.949Z,5.72
2018-02-17T10:49:23.321Z,5.69
2018-02-17T10:50:33.742Z,5.69
2018-02-17T10:51:44.087Z,5.69
2018-02-17T10:52:54.241Z,5.54
2018-02-17T10:54:04.398Z,5.59
2018-02-17T10:55:14.548Z,5.58
2018-02-17T10:56:24.772Z,5.56
2018-02-17T10:57:34.936Z,5.56
2018-02-17T10:58:46.071Z,5.61
2018-02-17T10:59:56.389Z,5.65
2018-02-17T11:01:06.660Z,5.61
2018-02-17T11:02:16.360Z,5.65
2018-02-17T11:03:26.546Z,5.62
2018-02-17T11:04:36.743Z,5.64
2018-02-17T11:05:46.060Z,5.67
2018-02-17T11:06:56.513Z,5.67
2018-02-17T11:08:06.435Z,5.58
2018-02-17T11:09:16.405Z,5.5
2018-02-17T11:10:26.416Z,5.46
2018-02-17T11:11:36.455Z,5.49
2018-02-17T11:12:46.612Z,5.49
2018-02-17T11:13:56.591Z,5.5
2018-02-17T11:15:06.796Z,5.53
2018-02-17T11:16:16.955Z,5.64
2018-02-17T11:17:27.102Z,5.72
2018-02-17T11:18:37.007Z,5.71
2018-02-17T11:19:47.187Z,5.69
2018-02-17T11:20:57.381Z,5.65
2018-02-17T11:22:07.313Z,5.68
2018-02-17T11:23:17.507Z,5.74
2018-02-17T11:24:27.297Z,5.86
2018-02-17T11:25:37.213Z,5.9
2018-02-17T11:26:47.401Z,5.86
2018-02-17T11:27:56.823Z,5.96
2018-02-17T11:29:07.095Z,6.03
2018-02-17T11:30:17.012Z,6.06
2018-02-17T11:31:27.173Z,6.16
2018-02-17T11:32:37.114Z,6.16
2018-02-17T11:33:47.248Z,6.23
2018-02-17T11:34:57.419Z,6.27
2018-02-17T11:36:07.166Z,6.46
2018-02-17T11:37:17.313Z,6.48
2018-02-17T11:38:27.527Z,6.49
2018-02-17T11:39:37.381Z,6.66
2018-02-17T11:40:47.608Z,6.77
2018-02-17T11:41:57.829Z,6.82
2018-02-17T11:43:08.025Z,6.93
2018-02-17T11:44:17.902Z,7
2018-02-17T11:45:28.206Z,7.14
2018-02-17T11:46:38.164Z,7.21
2018-02-17T11:47:48.333Z,7.47
2018-02-17T11:48:58.255Z,7.55
2018-02-17T11:50:08.467Z,7.66
2018-02-17T11:51:18.726Z,7.67
2018-02-17T11:52:28.861Z,7.73
2018-02-17T11:53:39.032Z,7.61
2018-02-17T11:54:49.230Z,7.51
2018-02-17T11:55:59.114Z,7.49
2018-02-17T11:57:09.324Z,7.47
2018-02-17T11:58:19.113Z,7.48
2018-02-17T11:59:29.298Z,7.66
2018-02-17T12:00:39.569Z,7.74
2018-02-17T12:01:49.759Z,7.72
2018-02-17T12:02:59.924Z,7.74
2018-02-17T12:04:10.090Z,7.77
2018-02-17T12:05:20.368Z,7.77
2018-02-17T12:06:30.555Z,7.69
2018-02-17T12:07:40.702Z,7.69
2018-02-17T12:08:50.847Z,7.61
2018-02-17T12:10:01.081Z,7.54
2018-02-17T12:11:11.407Z,7.49
2018-02-17T12:12:21.183Z,7.39
2018-02-17T12:13:31.242Z,7.41
2018-02-17T12:14:41.398Z,7.24
2018-02-17T12:15:51.496Z,7.18
2018-02-17T12:17:01.222Z,7.13
2018-02-17T12:18:11.130Z,7.03
2018-02-17T12:19:21.053Z,6.97
2018-02-17T12:20:30.967Z,6.93
2018-02-17T12:22:13.023Z,6.84
2018-02-17T12:23:23.263Z,6.74
2018-02-17T12:24:33.411Z,6.67
2018-02-17T12:25:43.600Z,6.66
2018-02-17T12:26:53.503Z,6.56
2018-02-17T12:28:03.674Z,6.63
2018-02-17T12:29:14.556Z,6.46
2018-02-17T12:30:24.768Z,6.53
2018-02-17T12:31:34.907Z,6.49
2018-02-17T12:32:45.086Z,6.38
2018-02-17T12:33:54.663Z,6.28
2018-02-17T12:35:04.812Z,6.26
2018-02-17T12:36:15.084Z,6.24
2018-02-17T12:37:25.242Z,6.27
2018-02-17T12:38:35.131Z,6.19
2018-02-17T12:39:45.404Z,6.12
2018-02-17T12:40:55.045Z,6.14
2018-02-17T12:42:05.183Z,6.05
2018-02-17T12:43:16.378Z,6.08
2018-02-17T12:44:26.651Z,5.96
2018-02-17T12:45:36.029Z,6.01
2018-02-17T12:46:45.913Z,5.9
2018-02-17T12:47:56.059Z,5.79
2018-02-17T12:49:06.254Z,5.88
2018-02-17T12:50:16.419Z,5.77
2018-02-17T12:51:26.296Z,5.84
2018-02-17T12:52:36.415Z,5.93
2018-02-17T12:53:46.582Z,5.75
2018-02-17T12:54:56.737Z,5.88
2018-02-17T12:56:06.264Z,5.86
2018-02-17T12:57:16.426Z,5.77
2018-02-17T12:58:26.565Z,5.77
2018-02-17T12:59:36.744Z,5.74
2018-02-17T13:00:46.956Z,5.65
2018-02-17T13:01:56.602Z,5.53
2018-02-17T13:03:06.136Z,5.54
2018-02-17T13:04:16.287Z,5.56
2018-02-17T13:05:26.433Z,5.51
2018-02-17T13:06:36.629Z,5.46
2018-02-17T13:07:46.257Z,5.38
2018-02-17T13:08:56.497Z,5.41
2018-02-17T13:10:06.399Z,5.46
2018-02-17T13:11:16.576Z,5.4
2018-02-17T13:12:26.557Z,5.41
2018-02-17T13:13:36.903Z,5.38
2018-02-17T13:14:46.895Z,5.33
2018-02-17T13:15:57.056Z,5.31
2018-02-17T13:17:07.204Z,5.38
2018-02-17T13:18:17.346Z,5.4
2018-02-17T13:19:27.530Z,5.46
2018-02-17T13:20:37.709Z,5.4
2018-02-17T13:21:47.876Z,5.31
2018-02-17T13:22:57.881Z,5.4
2018-02-17T13:24:07.427Z,5.4
2018-02-17T13:25:17.376Z,5.4
2018-02-17T13:26:27.391Z,5.46
2018-02-17T13:27:37.657Z,5.32
2018-02-17T13:28:47.344Z,5.31
2018-02-17T13:29:57.255Z,5.29
2018-02-17T13:31:07.411Z,5.36
2018-02-17T13:32:17.261Z,5.33
2018-02-17T13:33:27.440Z,5.28
2018-02-17T13:34:36.957Z,5.24
2018-02-17T13:35:46.862Z,5.14
2018-02-17T13:36:56.798Z,5.1
2018-02-17T13:38:06.878Z,5.07
2018-02-17T13:39:17.058Z,5.04
2018-02-17T13:40:27.056Z,5.07
2018-02-17T13:41:37.324Z,5.07
2018-02-17T13:42:47.217Z,5.1
2018-02-17T13:43:57.176Z,5.07
2018-02-17T13:45:07.105Z,5.04
2018-02-17T13:46:17.321Z,5.04
2018-02-17T13:47:27.255Z,5.04
2018-02-17T13:48:37.404Z,4.99
2018-02-17T13:49:46.956Z,5.06
2018-02-17T13:50:57.122Z,5.04
2018-02-17T13:52:07.380Z,5.04
2018-02-17T13:53:17.678Z,5.03
2018-02-17T13:54:28.823Z,4.93
2018-02-17T13:55:39.002Z,4.9
2018-02-17T13:56:49.300Z,4.95
2018-02-17T13:58:00.027Z,4.95
2018-02-17T13:59:10.260Z,4.98
2018-02-17T14:00:20.188Z,4.98
2018-02-17T14:01:30.088Z,4.92
2018-02-17T14:02:39.982Z,4.95
2018-02-17T14:03:49.946Z,4.85
2018-02-17T14:04:59.872Z,4.77
2018-02-17T14:06:10.071Z,4.77
2018-02-17T14:07:19.978Z,4.8
2018-02-17T14:08:29.963Z,4.75
2018-02-17T14:09:40.319Z,4.89
2018-02-17T14:10:50.544Z,4.77
2018-02-17T14:12:00.759Z,4.85
2018-02-17T14:13:10.928Z,4.81
2018-02-17T14:14:22.055Z,4.83
2018-02-17T14:15:32.209Z,4.7
2018-02-17T14:16:42.116Z,4.73
2018-02-17T14:17:52.323Z,4.77
2018-02-17T14:19:02.691Z,4.74
2018-02-17T14:20:12.736Z,4.6
2018-02-17T14:21:23.895Z,4.7
2018-02-17T14:22:34.156Z,4.68
2018-02-17T14:23:44.359Z,4.63
2018-02-17T14:24:54.523Z,4.65
2018-02-17T14:26:04.690Z,4.59
2018-02-17T14:27:14.675Z,4.67
2018-02-17T14:28:24.623Z,4.52
2018-02-17T14:29:34.554Z,4.5
2018-02-17T14:30:44.732Z,4.52
2018-02-17T14:31:54.528Z,4.49
2018-02-17T14:33:04.321Z,4.38
2018-02-17T14:34:14.482Z,4.36
2018-02-17T14:35:24.286Z,4.33
2018-02-17T14:36:34.466Z,4.43
2018-02-17T14:37:44.638Z,4.43
2018-02-17T14:38:54.557Z,4.43
2018-02-17T14:40:04.562Z,4.37
2018-02-17T14:41:14.795Z,4.5
2018-02-17T14:42:24.942Z,4.4
2018-02-17T14:43:35.103Z,4.43
2018-02-17T14:44:45.404Z,4.4
2018-02-17T14:45:55.644Z,4.36
2018-02-17T14:47:05.880Z,4.38
2018-02-17T14:48:16.017Z,4.3
2018-02-17T14:49:26.204Z,4.3
2018-02-17T14:50:36.380Z,4.33
2018-02-17T14:51:46.582Z,4.23
2018-02-17T14:52:56.767Z,4.19
2018-02-17T14:54:06.937Z,4.15
2018-02-17T14:55:17.087Z,4.16
2018-02-17T14:56:27.247Z,4.08
2018-02-17T14:57:37.432Z,4.05
2018-02-17T14:58:47.234Z,4
2018-02-17T14:59:56.809Z,4.05
2018-02-17T15:01:06.818Z,4.04
2018-02-17T15:02:17.120Z,4.15
2018-02-17T15:03:27.383Z,4.04
2018-02-17T15:04:37.568Z,4.15
2018-02-17T15:05:47.700Z,4.01
2018-02-17T15:06:57.857Z,4
2018-02-17T15:08:07.992Z,4.01
2018-02-17T15:09:18.154Z,3.97
2018-02-17T15:10:28.161Z,4.03
2018-02-17T15:11:38.335Z,4.04
2018-02-17T15:12:48.342Z,4.08
2018-02-17T15:13:58.587Z,4
2018-02-17T15:15:08.371Z,3.98
2018-02-17T15:16:18.156Z,4.04
2018-02-17T15:17:27.933Z,4.09
2018-02-17T15:18:37.791Z,4
2018-02-17T15:19:48.025Z,4.12
2018-02-17T15:20:58.207Z,4
2018-02-17T15:22:08.610Z,4.08
2018-02-17T15:23:18.990Z,4.03
2018-02-17T15:24:29.199Z,4.16
2018-02-17T15:25:39.351Z,4.11
2018-02-17T15:26:49.277Z,3.98
2018-02-17T15:27:59.450Z,4
2018-02-17T15:29:09.892Z,4.05
2018-02-17T15:30:20.336Z,4.05
2018-02-17T15:31:30.535Z,4.03
2018-02-17T15:32:40.340Z,3.98